Time;durP1;ratioP1;P1;durP2;ratioP2;P2;SDS_P1;SDS_P2;PMS_P1;PMS_P2;Temp;Humidity;BMP_temperature;BMP_pressure;BME280_temperature;BME280_humidity;BME280_pressure;Samples;Min_cycle;Max_cycle;Signal;HPM_P1;HPM_P2
2022/02/16 00:01:48;;;;;;;7.73;6.73;;;6.80;99.90;;;;;;5011590;28;20602;-59
2022/02/16 00:04:16;;;;;;;6.90;6.20;;;6.70;99.90;;;;;;5011685;28;20590;-59
2022/02/16 00:06:45;;;;;;;8.43;5.37;;;6.80;99.90;;;;;;5011530;28;20291;-58
2022/02/16 00:09:13;;;;;;;4.93;4.30;;;6.70;99.90;;;;;;5009241;28;20320;-59
2022/02/16 00:11:42;;;;;;;6.00;4.07;;;6.70;99.90;;;;;;5011639;28;20236;-58
2022/02/16 00:14:10;;;;;;;4.13;3.73;;;6.70;99.90;;;;;;5011511;28;20233;-58
2022/02/16 00:16:39;;;;;;;4.93;3.77;;;6.70;99.90;;;;;;5020355;28;20608;-58
2022/02/16 00:19:07;;;;;;;4.37;3.27;;;6.70;99.90;;;;;;5002586;28;20259;-58
2022/02/16 00:21:36;;;;;;;4.80;3.60;;;6.70;99.90;;;;;;5010955;28;20233;-59
2022/02/16 00:24:06;;;;;;;4.20;3.70;;;6.70;99.90;;;;;;5011147;28;20689;-58
2022/02/16 00:26:34;;;;;;;4.90;3.40;;;6.80;99.90;;;;;;5011141;28;20701;-58
2022/02/16 00:29:02;;;;;;;6.17;3.40;;;6.70;99.90;;;;;;5011954;28;20233;-58
2022/02/16 00:31:30;;;;;;;4.17;3.77;;;6.70;99.90;;;;;;5011194;28;20245;-58
2022/02/16 00:34:00;;;;;;;5.30;3.33;;;6.60;99.90;;;;;;5011215;28;20265;-58
2022/02/16 00:36:28;;;;;;;5.17;3.53;;;6.60;99.90;;;;;;5010927;28;20245;-58
2022/02/16 00:38:58;;;;;;;4.53;3.33;;;6.60;99.90;;;;;;5009518;28;20280;-59
2022/02/16 00:41:26;;;;;;;5.20;3.90;;;6.60;99.90;;;;;;5010882;28;20241;-57
2022/02/16 00:43:54;;;;;;;6.50;3.90;;;6.70;99.90;;;;;;5011010;28;20241;-58
2022/02/16 00:46:25;;;;;;;4.00;3.60;;;6.70;99.90;;;;;;5009541;28;20324;-58
2022/02/16 00:48:53;;;;;;;5.03;3.80;;;6.60;99.90;;;;;;5009986;28;20252;-59
2022/02/16 00:51:22;;;;;;;4.33;3.63;;;6.60;99.90;;;;;;5011010;28;20267;-58
2022/02/16 00:53:52;;;;;;;4.40;3.90;;;6.60;99.90;;;;;;5009356;28;20320;-58
2022/02/16 00:56:25;;;;;;;4.07;3.30;;;6.60;99.90;;;;;;5003728;28;20380;-58
2022/02/16 00:58:54;;;;;;;4.17;3.67;;;6.60;99.90;;;;;;5009555;28;20300;-58
2022/02/16 01:01:22;;;;;;;4.73;3.97;;;6.60;99.90;;;;;;4998850;28;20232;-58
2022/02/16 01:03:53;;;;;;;4.80;4.40;;;6.50;99.90;;;;;;5000308;28;20229;-58
2022/02/16 01:06:24;;;;;;;5.00;4.50;;;6.60;99.90;;;;;;4999323;28;20236;-58
2022/02/16 01:08:52;;;;;;;5.30;4.80;;;6.60;99.90;;;;;;5004924;28;20566;-58
2022/02/16 01:11:21;;;;;;;6.10;4.83;;;6.50;99.90;;;;;;5003538;28;20237;-58
2022/02/16 01:13:50;;;;;;;7.07;5.17;;;6.60;99.90;;;;;;5000065;28;20229;-58
2022/02/16 01:16:18;;;;;;;5.57;5.07;;;6.60;99.90;;;;;;4998689;28;20234;-58
2022/02/16 01:18:50;;;;;;;5.60;5.10;;;6.50;99.90;;;;;;5000190;28;20236;-59
2022/02/16 01:21:21;;;;;;;7.10;5.30;;;6.60;99.90;;;;;;4998760;28;20242;-59
2022/02/16 01:23:53;;;;;;;6.20;5.57;;;6.60;99.90;;;;;;5000214;28;20221;-59
2022/02/16 01:26:23;;;;;;;6.67;5.83;;;6.60;99.90;;;;;;4989734;28;20788;-58
2022/02/16 01:28:57;;;;;;;7.53;5.30;;;6.70;99.90;;;;;;4999697;28;20603;-58
2022/02/16 01:31:30;;;;;;;5.87;4.90;;;6.60;99.90;;;;;;5009130;28;20682;-58
2022/02/16 01:34:00;;;;;;;6.27;5.33;;;6.60;99.90;;;;;;5009267;28;20245;-59
2022/02/16 01:36:33;;;;;;;6.00;5.00;;;6.60;99.90;;;;;;5005800;28;20248;-59
2022/02/16 01:39:03;;;;;;;6.03;5.03;;;6.70;99.90;;;;;;5007841;28;20237;-59
2022/02/16 01:41:41;;;;;;;6.50;4.87;;;6.70;99.90;;;;;;5009109;28;20256;-58
2022/02/16 01:44:19;;;;;;;6.93;5.50;;;6.90;99.90;;;;;;5020995;28;20232;-59
2022/02/16 01:46:53;;;;;;;8.03;5.23;;;6.90;99.90;;;;;;5028524;28;20232;-59
2022/02/16 01:49:26;;;;;;;6.10;5.50;;;6.80;99.90;;;;;;5029097;28;20673;-58
2022/02/16 01:51:56;;;;;;;7.17;5.17;;;6.80;99.90;;;;;;5028975;28;20605;-58
2022/02/16 01:54:28;;;;;;;7.00;5.53;;;6.80;99.90;;;;;;5028411;28;20242;-58
2022/02/16 01:56:57;;;;;;;6.30;5.63;;;6.80;99.90;;;;;;5029992;28;20785;-59
2022/02/16 01:59:33;;;;;;;7.33;6.00;;;6.90;99.90;;;;;;5031800;28;20298;-58
2022/02/16 02:02:20;;;;;;;8.10;6.00;;;6.80;99.90;;;;;;5012886;28;20240;-59
2022/02/16 02:04:53;;;;;;;7.80;6.13;;;6.80;99.90;;;;;;5012335;28;20752;-59
2022/02/16 02:07:21;;;;;;;7.30;6.43;;;6.70;99.90;;;;;;5015295;28;20236;-58
2022/02/16 02:09:51;;;;;;;9.07;6.33;;;6.80;99.90;;;;;;5015983;28;20264;-58
2022/02/16 02:12:19;;;;;;;8.50;6.83;;;6.80;99.90;;;;;;5013795;28;20319;-58
2022/02/16 02:14:51;;;;;;;10.03;7.57;;;6.80;99.90;;;;;;5012260;28;20237;-59
2022/02/16 02:17:31;;;;;;;9.43;7.90;;;6.80;99.90;;;;;;5003249;28;20237;-58
2022/02/16 02:20:02;;;;;;;9.87;8.50;;;6.80;99.90;;;;;;5010349;28;20233;-59
2022/02/16 02:22:32;;;;;;;10.40;8.53;;;6.70;99.90;;;;;;5011757;28;20299;-58
2022/02/16 02:25:01;;;;;;;11.63;10.03;;;6.80;99.90;;;;;;5012161;28;20237;-58
2022/02/16 02:27:29;;;;;;;11.17;9.27;;;6.80;99.90;;;;;;5011861;28;20259;-58
2022/02/16 02:29:57;;;;;;;13.73;11.07;;;6.80;99.90;;;;;;5013686;28;20237;-58
2022/02/16 02:32:26;;;;;;;14.90;11.03;;;6.90;99.90;;;;;;5011858;28;20292;-59
2022/02/16 02:34:54;;;;;;;13.83;11.17;;;6.80;99.90;;;;;;5011798;28;20237;-59
2022/02/16 02:37:23;;;;;;;16.63;13.67;;;6.90;99.90;;;;;;5016503;28;20616;-59
2022/02/16 02:39:51;;;;;;;17.33;14.20;;;6.90;99.90;;;;;;5026560;28;20243;-59
2022/02/16 02:42:20;;;;;;;17.63;14.07;;;6.80;99.90;;;;;;5032930;28;20229;-58
2022/02/16 02:44:48;;;;;;;16.80;14.33;;;6.80;99.90;;;;;;5016132;28;20244;-58
2022/02/16 02:47:21;;;;;;;18.83;14.47;;;6.80;99.90;;;;;;5011650;28;20272;-58
2022/02/16 02:49:53;;;;;;;19.60;15.87;;;6.80;99.90;;;;;;5011780;28;20241;-58
2022/02/16 02:52:22;;;;;;;23.00;16.97;;;6.80;99.90;;;;;;5013120;28;20649;-58
2022/02/16 02:54:50;;;;;;;24.10;17.20;;;6.90;99.90;;;;;;5011161;28;20236;-58
2022/02/16 02:57:19;;;;;;;22.80;18.17;;;6.90;99.90;;;;;;5012941;28;20252;-58
2022/02/16 02:59:47;;;;;;;24.70;18.53;;;7.00;99.90;;;;;;5010957;28;20237;-58
2022/02/16 03:02:15;;;;;;;24.50;18.53;;;6.90;99.90;;;;;;5011215;28;20239;-59
2022/02/16 03:04:43;;;;;;;23.07;18.27;;;7.00;99.90;;;;;;5012445;28;20249;-59
2022/02/16 03:07:11;;;;;;;23.90;18.97;;;7.00;99.90;;;;;;5018695;28;20236;-59
2022/02/16 03:09:43;;;;;;;21.97;17.80;;;6.90;99.90;;;;;;5008183;28;20316;-58
2022/02/16 03:12:12;;;;;;;23.93;18.50;;;6.90;99.90;;;;;;5011429;28;20241;-59
2022/02/16 03:14:40;;;;;;;21.63;18.47;;;7.00;99.90;;;;;;5031943;28;20239;-59
2022/02/16 03:17:09;;;;;;;24.47;19.60;;;7.00;99.90;;;;;;5031207;28;20237;-58
2022/02/16 03:19:38;;;;;;;25.27;19.33;;;7.00;99.90;;;;;;5014961;28;20266;-59
2022/02/16 03:22:07;;;;;;;22.00;17.13;;;6.90;99.90;;;;;;5010878;28;20239;-58
2022/02/16 03:24:35;;;;;;;24.67;18.33;;;7.10;99.90;;;;;;5010665;28;20245;-58
2022/02/16 03:27:06;;;;;;;25.30;19.53;;;7.10;99.90;;;;;;5011156;28;20237;-58
2022/02/16 03:29:57;;;;;;;25.17;18.80;;;7.10;99.90;;;;;;5034589;28;20716;-59
2022/02/16 03:32:26;;;;;;;24.57;18.67;;;7.00;99.90;;;;;;5012323;28;20240;-58
2022/02/16 03:34:54;;;;;;;24.07;18.87;;;7.10;99.90;;;;;;5010464;28;20732;-58
2022/02/16 03:37:23;;;;;;;22.30;18.23;;;7.00;99.90;;;;;;5008785;28;20243;-58
2022/02/16 03:39:52;;;;;;;26.07;19.67;;;7.00;99.90;;;;;;5011897;28;20283;-60
2022/02/16 03:42:21;;;;;;;22.30;18.23;;;7.00;99.90;;;;;;5010519;28;20237;-58
2022/02/16 03:44:50;;;;;;;24.20;18.23;;;7.00;99.90;;;;;;5010509;28;20237;-58
2022/02/16 03:47:22;;;;;;;25.10;18.60;;;7.10;99.90;;;;;;5010629;28;20770;-58
2022/02/16 03:49:50;;;;;;;24.33;19.23;;;7.10;99.90;;;;;;5010954;28;20241;-59
2022/02/16 03:52:19;;;;;;;24.83;18.47;;;7.10;99.90;;;;;;5010540;28;20243;-58
2022/02/16 03:54:48;;;;;;;25.47;19.13;;;7.20;99.90;;;;;;5011480;28;20252;-58
2022/02/16 03:57:16;;;;;;;24.80;17.87;;;7.20;99.90;;;;;;5011901;28;20974;-58
2022/02/16 03:59:46;;;;;;;27.00;19.37;;;7.20;99.90;;;;;;5010118;28;20253;-58
2022/02/16 04:02:32;;;;;;;24.03;18.30;;;7.20;99.90;;;;;;5011622;28;20284;-58
2022/02/16 04:05:01;;;;;;;25.43;19.47;;;7.20;99.90;;;;;;5011611;28;20282;-58
2022/02/16 04:07:29;;;;;;;25.27;19.73;;;7.20;99.90;;;;;;5006036;28;20365;-58
2022/02/16 04:09:58;;;;;;;25.53;19.77;;;7.30;99.90;;;;;;5013657;28;20751;-58
2022/02/16 04:12:27;;;;;;;24.03;18.00;;;7.20;99.90;;;;;;5010032;28;20243;-59
2022/02/16 04:14:56;;;;;;;24.33;19.03;;;7.10;99.90;;;;;;5009781;28;20245;-58
2022/02/16 04:17:25;;;;;;;26.03;19.97;;;7.20;99.90;;;;;;5009927;28;20237;-58
2022/02/16 04:19:56;;;;;;;25.70;18.70;;;7.10;99.90;;;;;;5009835;28;20233;-59
2022/02/16 04:22:25;;;;;;;23.67;19.07;;;7.10;99.90;;;;;;5010776;28;20292;-59
2022/02/16 04:24:55;;;;;;;24.00;18.27;;;7.20;99.90;;;;;;5009786;28;20237;-58
2022/02/16 04:27:24;;;;;;;22.83;18.57;;;7.20;99.90;;;;;;5009846;28;20243;-58
2022/02/16 04:29:52;;;;;;;21.70;16.73;;;7.20;99.90;;;;;;5009387;28;20263;-58
2022/02/16 04:32:21;;;;;;;19.40;16.50;;;7.10;99.90;;;;;;5011134;28;20241;-58
2022/02/16 04:34:50;;;;;;;18.73;15.53;;;7.10;99.90;;;;;;5009547;28;20241;-59
2022/02/16 04:37:18;;;;;;;18.90;16.33;;;7.20;99.90;;;;;;5011131;28;20279;-58
2022/02/16 04:39:46;;;;;;;18.53;14.93;;;7.20;99.90;;;;;;5027559;28;20758;-58
2022/02/16 04:42:15;;;;;;;17.63;14.40;;;7.20;99.90;;;;;;5029651;28;20236;-59
2022/02/16 04:44:43;;;;;;;20.17;15.43;;;7.20;99.90;;;;;;5013275;28;20237;-60
2022/02/16 04:47:15;;;;;;;18.40;15.63;;;7.30;99.90;;;;;;5011116;28;20725;-58
2022/02/16 04:49:44;;;;;;;17.63;14.50;;;7.40;99.90;;;;;;5011477;28;20237;-59
2022/02/16 04:52:12;;;;;;;19.77;15.07;;;7.30;99.90;;;;;;5011140;28;20244;-58
2022/02/16 04:54:40;;;;;;;19.30;15.33;;;7.20;99.90;;;;;;5009168;28;20264;-58
2022/02/16 04:57:09;;;;;;;19.40;15.27;;;7.30;99.90;;;;;;5029263;28;20286;-58
2022/02/16 04:59:49;;;;;;;19.07;15.47;;;7.40;99.90;;;;;;5026211;28;20239;-58
2022/02/16 05:02:17;;;;;;;18.50;15.63;;;7.30;99.90;;;;;;5029139;28;20643;-59
2022/02/16 05:04:47;;;;;;;16.33;14.47;;;7.30;99.90;;;;;;5028902;28;20851;-58
2022/02/16 05:07:15;;;;;;;16.33;14.63;;;7.30;99.90;;;;;;5033721;28;20726;-58
2022/02/16 05:09:44;;;;;;;16.43;13.67;;;7.20;99.90;;;;;;5031140;28;20236;-59
2022/02/16 05:12:12;;;;;;;15.27;13.40;;;7.10;99.90;;;;;;5029336;28;20236;-58
2022/02/16 05:14:41;;;;;;;16.30;13.47;;;7.10;99.90;;;;;;5028916;28;20600;-58
2022/02/16 05:17:09;;;;;;;14.90;12.80;;;7.10;99.90;;;;;;5030560;28;20295;-58
2022/02/16 05:19:40;;;;;;;16.07;13.37;;;7.10;99.90;;;;;;5028802;28;20236;-58
2022/02/16 05:22:10;;;;;;;15.03;13.43;;;7.10;99.90;;;;;;5028947;28;20239;-58
2022/02/16 05:24:43;;;;;;;15.23;13.63;;;7.10;99.90;;;;;;5028803;28;20239;-58
2022/02/16 05:27:11;;;;;;;14.60;13.07;;;7.10;99.90;;;;;;5030500;28;20262;-58
2022/02/16 05:29:40;;;;;;;14.80;13.17;;;7.10;99.90;;;;;;5029656;28;20232;-58
2022/02/16 05:32:12;;;;;;;16.77;13.73;;;7.20;99.90;;;;;;5029075;28;20675;-58
2022/02/16 05:34:40;;;;;;;15.23;13.30;;;7.20;99.90;;;;;;5033990;28;20239;-59
2022/02/16 05:37:10;;;;;;;15.33;13.73;;;7.20;99.90;;;;;;5037283;28;20575;-58
2022/02/16 05:39:38;;;;;;;15.60;13.47;;;7.20;99.90;;;;;;5039443;28;20251;-58
2022/02/16 05:42:07;;;;;;;14.73;12.83;;;7.20;99.90;;;;;;5052477;28;20255;-58
2022/02/16 05:44:40;;;;;;;14.27;12.20;;;7.10;99.90;;;;;;5036992;28;20239;-59
2022/02/16 05:47:08;;;;;;;13.87;12.27;;;7.20;99.90;;;;;;5033984;28;20228;-58
2022/02/16 05:49:37;;;;;;;13.40;11.33;;;7.20;99.90;;;;;;5035923;28;20565;-58
2022/02/16 05:52:05;;;;;;;13.57;10.83;;;7.10;99.90;;;;;;5044679;28;20287;-58
2022/02/16 05:54:35;;;;;;;11.87;9.87;;;7.10;99.90;;;;;;5036931;28;20319;-58
2022/02/16 05:57:04;;;;;;;11.33;9.23;;;7.10;99.90;;;;;;5050236;28;20371;-58
2022/02/16 05:59:34;;;;;;;10.87;8.97;;;7.10;99.90;;;;;;5037525;28;20290;-58
2022/02/16 06:02:04;;;;;;;10.77;9.60;;;7.10;99.90;;;;;;5032280;28;20705;-58
2022/02/16 06:04:33;;;;;;;11.40;10.13;;;7.10;99.90;;;;;;5031913;28;20600;-58
2022/02/16 06:07:03;;;;;;;11.77;9.93;;;7.10;99.90;;;;;;5029030;28;20255;-58
2022/02/16 06:09:33;;;;;;;13.00;10.30;;;7.20;99.90;;;;;;5039318;28;20240;-59
2022/02/16 06:12:05;;;;;;;11.63;10.03;;;7.20;99.90;;;;;;5033537;28;20240;-58
2022/02/16 06:14:35;;;;;;;11.67;10.13;;;7.20;99.90;;;;;;5031745;28;20232;-58
2022/02/16 06:17:09;;;;;;;13.13;10.17;;;7.20;99.90;;;;;;5031941;28;20232;-58
2022/02/16 06:19:38;;;;;;;12.20;10.33;;;7.20;99.90;;;;;;5031508;28;20669;-58
2022/02/16 06:22:08;;;;;;;12.53;10.30;;;7.10;99.90;;;;;;5029398;28;20290;-61
2022/02/16 06:24:37;;;;;;;13.27;10.77;;;7.20;99.90;;;;;;5026739;28;20232;-59
2022/02/16 06:27:09;;;;;;;13.27;11.37;;;7.20;99.90;;;;;;5022157;28;20316;-58
2022/02/16 06:29:38;;;;;;;12.30;11.00;;;7.20;99.90;;;;;;5027445;28;20241;-59
2022/02/16 06:32:26;;;;;;;11.20;9.77;;;7.20;99.90;;;;;;5031331;28;20243;-58
2022/02/16 06:34:56;;;;;;;12.13;10.63;;;7.10;99.90;;;;;;5037558;28;20232;-59
2022/02/16 06:37:25;;;;;;;11.43;10.10;;;7.20;99.90;;;;;;5038658;28;20243;-57
2022/02/16 06:39:54;;;;;;;11.13;9.40;;;7.20;99.90;;;;;;5031611;28;20243;-58
2022/02/16 06:42:26;;;;;;;11.17;9.43;;;7.20;99.90;;;;;;5025289;28;20244;-59
2022/02/16 06:44:54;;;;;;;11.27;10.10;;;7.20;99.90;;;;;;5025721;28;20229;-58
2022/02/16 06:47:32;;;;;;;11.40;10.07;;;7.20;99.90;;;;;;5036181;28;20278;-58
2022/02/16 06:50:00;;;;;;;12.60;10.53;;;7.20;99.90;;;;;;5034969;28;20233;-58
2022/02/16 06:52:31;;;;;;;11.53;10.23;;;7.20;99.90;;;;;;5035630;28;20240;-58
2022/02/16 06:54:59;;;;;;;11.40;10.20;;;7.20;99.90;;;;;;5031503;28;20263;-58
2022/02/16 06:57:29;;;;;;;11.13;9.90;;;7.20;99.90;;;;;;5036526;28;20259;-59
2022/02/16 07:00:00;;;;;;;12.43;10.50;;;7.20;99.90;;;;;;5029907;28;20316;-58
2022/02/16 07:02:30;;;;;;;12.87;10.37;;;7.20;99.90;;;;;;5032907;28;20236;-58
2022/02/16 07:04:59;;;;;;;12.17;10.70;;;7.20;99.90;;;;;;5031992;28;20236;-59
2022/02/16 07:07:30;;;;;;;11.93;10.63;;;7.20;99.90;;;;;;5036639;28;20704;-59
2022/02/16 07:09:58;;;;;;;12.70;10.73;;;7.20;99.90;;;;;;5034926;28;20243;-58
2022/02/16 07:12:28;;;;;;;12.10;10.80;;;7.30;99.90;;;;;;5036083;28;20244;-58
2022/02/16 07:14:56;;;;;;;12.73;11.43;;;7.20;99.90;;;;;;5031686;28;20244;-59
2022/02/16 07:17:25;;;;;;;12.80;11.27;;;7.20;99.90;;;;;;5052114;28;20236;-60
2022/02/16 07:19:53;;;;;;;12.93;11.10;;;7.30;99.90;;;;;;5034799;28;20319;-59
2022/02/16 07:22:27;;;;;;;12.60;11.27;;;7.20;99.90;;;;;;5035827;28;20319;-58
2022/02/16 07:24:56;;;;;;;13.20;11.43;;;7.30;99.90;;;;;;5031773;28;20778;-59
2022/02/16 07:27:24;;;;;;;13.40;11.10;;;7.40;99.90;;;;;;5036150;28;20232;-59
2022/02/16 07:29:54;;;;;;;12.80;11.47;;;7.40;99.90;;;;;;5038189;28;20241;-59
2022/02/16 07:32:22;;;;;;;11.90;10.57;;;7.30;99.90;;;;;;5035451;28;20237;-59
2022/02/16 07:34:51;;;;;;;12.00;10.80;;;7.40;99.90;;;;;;5026400;28;20312;-58
2022/02/16 07:37:19;;;;;;;12.17;10.50;;;7.40;99.90;;;;;;5023669;28;20266;-59
2022/02/16 07:39:48;;;;;;;12.27;10.97;;;7.40;99.90;;;;;;5026985;28;20245;-59
2022/02/16 07:42:20;;;;;;;12.20;10.70;;;7.50;99.90;;;;;;5030119;28;20241;-59
2022/02/16 07:44:55;;;;;;;12.13;10.93;;;7.40;99.90;;;;;;5030266;28;20231;-59
2022/02/16 07:47:29;;;;;;;12.27;10.97;;;7.50;99.90;;;;;;5035836;28;20272;-58
2022/02/16 07:50:06;;;;;;;13.17;11.83;;;7.50;99.90;;;;;;5030619;28;20315;-58
2022/02/16 07:53:04;;;;;;;13.10;11.23;;;7.60;99.90;;;;;;5029137;28;20256;-61
2022/02/16 07:55:37;;;;;;;12.77;11.40;;;7.60;99.90;;;;;;5029201;28;20296;-61
2022/02/16 07:58:06;;;;;;;13.77;12.17;;;7.60;99.90;;;;;;5030091;28;20286;-61
2022/02/16 08:00:37;;;;;;;14.53;12.53;;;7.70;99.90;;;;;;5029736;28;20248;-61
2022/02/16 08:03:19;;;;;;;16.63;14.63;;;7.70;99.90;;;;;;5031083;28;20240;-61
2022/02/16 08:05:49;;;;;;;15.87;14.17;;;7.60;99.90;;;;;;5029977;28;20251;-61
2022/02/16 08:08:22;;;;;;;14.90;13.30;;;7.70;99.90;;;;;;5031080;28;20247;-61
2022/02/16 08:10:52;;;;;;;14.60;13.10;;;7.70;99.90;;;;;;5030642;28;20588;-61
2022/02/16 08:13:21;;;;;;;14.70;13.13;;;7.70;99.90;;;;;;5029710;28;20260;-61
2022/02/16 08:16:13;;;;;;;15.57;13.47;;;7.70;99.90;;;;;;5024436;28;20244;-61
2022/02/16 08:18:55;;;;;;;14.17;12.67;;;7.70;99.90;;;;;;5026166;28;20268;-58
2022/02/16 08:21:23;;;;;;;14.30;12.80;;;7.80;99.90;;;;;;5008015;28;20237;-59
2022/02/16 08:23:51;;;;;;;13.30;11.90;;;7.80;99.90;;;;;;5005800;28;20567;-59
2022/02/16 08:26:20;;;;;;;13.60;12.13;;;7.70;99.90;;;;;;5003692;28;20279;-60
2022/02/16 08:28:49;;;;;;;13.80;12.00;;;7.80;99.90;;;;;;5005028;28;20332;-60
2022/02/16 08:31:22;;;;;;;12.97;11.63;;;7.80;99.90;;;;;;5005358;28;20241;-59
2022/02/16 08:34:02;;;;;;;12.90;11.60;;;7.80;99.90;;;;;;5006745;28;20276;-59
2022/02/16 08:36:41;;;;;;;12.53;11.23;;;7.80;99.90;;;;;;5018940;28;20240;-60
2022/02/16 08:39:09;;;;;;;13.20;11.80;;;7.80;99.90;;;;;;5026716;28;20252;-59
2022/02/16 08:41:39;;;;;;;14.13;12.60;;;7.80;99.90;;;;;;5027288;28;20584;-59
2022/02/16 08:44:07;;;;;;;12.37;11.17;;;7.80;99.90;;;;;;5026479;28;20339;-59
2022/02/16 08:46:36;;;;;;;13.53;11.90;;;7.80;99.90;;;;;;5024797;28;20236;-59
2022/02/16 08:49:05;;;;;;;12.70;11.37;;;7.90;99.90;;;;;;5026104;28;20247;-58
2022/02/16 08:51:33;;;;;;;11.37;10.23;;;7.90;99.90;;;;;;5026055;28;20739;-59
2022/02/16 08:54:01;;;;;;;11.20;10.10;;;7.90;99.90;;;;;;5026218;28;20244;-59
2022/02/16 08:56:29;;;;;;;9.90;8.90;;;7.90;99.90;;;;;;5024312;28;20255;-59
2022/02/16 08:59:00;;;;;;;10.23;9.17;;;7.90;99.90;;;;;;5025650;28;20248;-60
2022/02/16 09:01:31;;;;;;;9.77;8.77;;;8.00;99.90;;;;;;5025511;28;20377;-60
2022/02/16 09:04:02;;;;;;;9.93;8.93;;;7.90;99.90;;;;;;5025834;28;20244;-58
2022/02/16 09:06:31;;;;;;;9.17;8.27;;;8.00;99.90;;;;;;5024267;28;20248;-59
2022/02/16 09:08:59;;;;;;;8.50;7.60;;;8.00;99.90;;;;;;5028288;28;20274;-59
2022/02/16 09:11:29;;;;;;;8.80;7.90;;;8.00;99.90;;;;;;5029225;28;20258;-59
2022/02/16 09:13:58;;;;;;;8.47;7.67;;;8.00;99.90;;;;;;5030340;28;20244;-59
2022/02/16 09:16:27;;;;;;;8.67;7.77;;;8.00;99.90;;;;;;5028088;28;20248;-59
2022/02/16 09:18:55;;;;;;;8.67;7.70;;;8.00;99.90;;;;;;5029933;28;20259;-58
2022/02/16 09:21:24;;;;;;;8.50;7.63;;;8.00;99.90;;;;;;5029795;28;20243;-59
2022/02/16 09:23:52;;;;;;;8.13;7.33;;;8.00;99.90;;;;;;5029895;28;20239;-59
2022/02/16 09:26:21;;;;;;;8.00;7.20;;;8.10;99.90;;;;;;5029122;28;20248;-59
2022/02/16 09:28:50;;;;;;;9.63;8.73;;;8.10;99.90;;;;;;5029717;28;20236;-59
2022/02/16 09:31:19;;;;;;;8.60;7.73;;;8.20;99.90;;;;;;5029796;28;20906;-59
2022/02/16 09:33:48;;;;;;;8.27;7.47;;;8.20;99.90;;;;;;5029537;28;20620;-59
2022/02/16 09:36:16;;;;;;;9.77;8.67;;;8.20;99.90;;;;;;5028589;28;20589;-60
2022/02/16 09:38:45;;;;;;;9.03;8.13;;;8.20;99.90;;;;;;5029634;28;20243;-59
2022/02/16 09:41:16;;;;;;;8.63;7.83;;;8.20;99.90;;;;;;5029806;28;20269;-58
2022/02/16 09:43:46;;;;;;;8.90;8.10;;;8.30;99.90;;;;;;5029538;28;20298;-58
2022/02/16 09:46:15;;;;;;;8.13;7.33;;;8.30;99.90;;;;;;5028023;28;20721;-59
2022/02/16 09:48:43;;;;;;;8.07;7.27;;;8.30;99.90;;;;;;5029220;28;20243;-59
2022/02/16 09:51:13;;;;;;;8.67;7.87;;;8.40;99.90;;;;;;5029574;28;20574;-59
2022/02/16 09:53:41;;;;;;;7.63;6.93;;;8.40;99.90;;;;;;5029130;28;20240;-59
2022/02/16 09:56:11;;;;;;;7.27;6.57;;;8.40;99.90;;;;;;5027902;28;20242;-60
2022/02/16 09:58:40;;;;;;;7.07;6.40;;;8.40;99.90;;;;;;5028788;28;20248;-59
2022/02/16 10:01:11;;;;;;;7.07;6.37;;;8.60;99.90;;;;;;5029512;28;20647;-59
2022/02/16 10:03:40;;;;;;;7.30;6.60;;;8.60;99.90;;;;;;5029440;28;20244;-59
2022/02/16 10:06:34;;;;;;;7.23;6.63;;;8.60;99.90;;;;;;5028112;28;20244;-59
2022/02/16 10:09:04;;;;;;;7.20;6.50;;;8.70;99.90;;;;;;5028972;28;20236;-59
2022/02/16 10:11:34;;;;;;;7.67;6.97;;;8.70;99.90;;;;;;5029362;28;20267;-59
2022/02/16 10:14:17;;;;;;;7.93;7.20;;;8.80;99.90;;;;;;5029089;28;20232;-58
2022/02/16 10:16:45;;;;;;;7.57;6.93;;;8.80;99.90;;;;;;5026948;28;20267;-60
2022/02/16 10:19:14;;;;;;;7.07;6.47;;;8.80;99.90;;;;;;5028639;28;20236;-60
2022/02/16 10:22:05;;;;;;;5.90;5.40;;;8.80;99.90;;;;;;5028811;28;20245;-59
2022/02/16 10:24:34;;;;;;;6.80;6.20;;;8.90;99.90;;;;;;5028391;28;20252;-59
2022/02/16 10:27:05;;;;;;;8.40;7.60;;;8.90;99.90;;;;;;5027198;28;20249;-58
2022/02/16 10:29:35;;;;;;;7.27;6.57;;;8.90;99.90;;;;;;5028514;28;20256;-59
2022/02/16 10:32:04;;;;;;;7.77;7.13;;;8.90;99.90;;;;;;5028907;28;20944;-58
2022/02/16 10:34:50;;;;;;;7.53;6.83;;;8.90;99.90;;;;;;5028470;28;20244;-59
2022/02/16 10:37:19;;;;;;;7.80;7.10;;;9.00;99.90;;;;;;5026581;28;20692;-59
2022/02/16 10:40:06;;;;;;;21.13;19.17;;;9.10;99.90;;;;;;5028212;28;20240;-58
2022/02/16 10:42:37;;;;;;;10.77;9.77;;;9.20;99.90;;;;;;5028310;28;20271;-59
2022/02/16 10:45:09;;;;;;;9.60;8.80;;;9.30;99.90;;;;;;5027968;28;20349;-59
2022/02/16 10:47:59;;;;;;;9.20;8.43;;;9.30;99.90;;;;;;5026269;28;20245;-58
2022/02/16 10:50:30;;;;;;;9.60;8.60;;;9.30;99.90;;;;;;5028027;28;20247;-59
2022/02/16 10:53:01;;;;;;;8.60;7.80;;;9.40;99.90;;;;;;5028214;28;20241;-60
2022/02/16 10:55:41;;;;;;;8.83;8.03;;;9.40;99.90;;;;;;5028387;28;20245;-59
2022/02/16 10:58:13;;;;;;;8.23;7.53;;;9.50;99.90;;;;;;5026590;28;20375;-59
2022/02/16 11:00:43;;;;;;;11.33;10.33;;;9.50;99.90;;;;;;5028198;28;20643;-59
2022/02/16 11:03:16;;;;;;;7.27;6.57;;;9.50;99.90;;;;;;5028389;28;20582;-58
2022/02/16 11:05:45;;;;;;;7.27;6.60;;;9.50;99.90;;;;;;5028495;28;20663;-59
2022/02/16 11:08:14;;;;;;;6.33;5.83;;;9.60;99.90;;;;;;5027634;28;20236;-59
2022/02/16 11:10:46;;;;;;;6.00;5.60;;;9.60;99.90;;;;;;5028600;28;20319;-59
2022/02/16 11:13:18;;;;;;;5.07;4.67;;;9.60;99.90;;;;;;5028084;28;20318;-59
2022/02/16 11:15:47;;;;;;;5.37;4.97;;;9.70;99.90;;;;;;5027116;28;20281;-59
2022/02/16 11:18:17;;;;;;;4.67;4.27;;;9.70;99.90;;;;;;5025527;28;20232;-60
2022/02/16 11:21:05;;;;;;;4.43;4.03;;;9.70;99.90;;;;;;5026987;28;20871;-60
2022/02/16 11:23:38;;;;;;;4.10;3.80;;;9.70;99.90;;;;;;5027456;28;20240;-59
2022/02/16 11:26:29;;;;;;;4.03;3.70;;;9.80;99.90;;;;;;5027448;28;20250;-60
2022/02/16 11:28:59;;;;;;;4.00;3.70;;;9.90;99.90;;;;;;5027353;28;20243;-59
2022/02/16 11:31:29;;;;;;;3.70;3.40;;;9.80;99.90;;;;;;5025851;28;20245;-59
2022/02/16 11:34:20;;;;;;;4.10;3.80;;;9.90;99.90;;;;;;5027658;28;20237;-58
2022/02/16 11:36:53;;;;;;;3.40;3.20;;;9.90;99.90;;;;;;5025093;28;20302;-59
2022/02/16 11:39:41;;;;;;;3.10;2.90;;;9.90;99.90;;;;;;5027120;28;20347;-60
2022/02/16 11:42:12;;;;;;;3.07;2.43;;;10.00;99.90;;;;;;5027560;28;20260;-59
2022/02/16 11:45:11;;;;;;;2.50;2.30;;;10.00;99.90;;;;;;5027046;28;20704;-59
2022/02/16 11:47:53;;;;;;;2.13;1.93;;;10.10;99.90;;;;;;4963643;28;20245;-59
2022/02/16 11:50:39;;;;;;;2.03;1.90;;;10.20;99.90;;;;;;5018922;28;20606;-59
2022/02/16 11:53:10;;;;;;;2.23;2.03;;;10.20;99.90;;;;;;5027042;28;20265;-59
2022/02/16 11:55:42;;;;;;;1.67;1.43;;;10.30;99.90;;;;;;5027536;28;20281;-59
2022/02/16 11:58:26;;;;;;;2.03;1.67;;;10.30;99.90;;;;;;5024257;28;20618;-59
2022/02/16 12:01:18;;;;;;;1.40;1.30;;;10.20;99.90;;;;;;5026549;28;20230;-58
2022/02/16 12:03:54;;;;;;;2.67;2.40;;;10.30;99.90;;;;;;5026350;28;20268;-59
2022/02/16 12:06:23;;;;;;;2.20;2.10;;;10.30;99.90;;;;;;5025214;28;20245;-59
2022/02/16 12:09:08;;;;;;;2.50;2.30;;;10.30;99.90;;;;;;5008334;28;20413;-59
2022/02/16 12:11:40;;;;;;;2.83;1.70;;;10.30;99.90;;;;;;5026329;28;20241;-59
2022/02/16 12:14:16;;;;;;;2.10;2.00;;;10.40;99.90;;;;;;5009975;28;20242;-59
2022/02/16 12:16:48;;;;;;;1.80;1.60;;;10.50;99.90;;;;;;5023475;28;20238;-59
2022/02/16 12:19:19;;;;;;;3.23;2.30;;;10.40;99.90;;;;;;5025174;28;20257;-59
2022/02/16 12:21:50;;;;;;;2.27;2.07;;;10.50;99.90;;;;;;5026051;28;20241;-59
2022/02/16 12:24:20;;;;;;;3.00;2.80;;;10.50;99.90;;;;;;5026517;28;20261;-59
2022/02/16 12:26:50;;;;;;;2.77;2.37;;;10.50;99.90;;;;;;5024373;28;20293;-60
2022/02/16 12:29:20;;;;;;;3.43;2.97;;;10.50;99.90;;;;;;5026177;28;20304;-59
2022/02/16 12:31:51;;;;;;;3.63;3.23;;;10.50;99.90;;;;;;5026506;28;20273;-59
2022/02/16 12:34:21;;;;;;;4.93;3.13;;;10.60;99.90;;;;;;5026543;28;20343;-59
2022/02/16 12:36:51;;;;;;;2.80;2.60;;;10.50;99.90;;;;;;5024329;28;20261;-60
2022/02/16 12:39:26;;;;;;;3.27;2.60;;;10.50;99.90;;;;;;5025914;28;20237;-59
2022/02/16 12:41:54;;;;;;;4.60;2.67;;;10.60;99.90;;;;;;5025850;28;20229;-58
2022/02/16 12:44:32;;;;;;;4.10;2.53;;;10.60;99.90;;;;;;5025950;28;20235;-59
2022/02/16 12:47:05;;;;;;;7.00;3.00;;;10.70;99.90;;;;;;5024883;28;20261;-60
2022/02/16 12:49:35;;;;;;;4.17;3.10;;;10.70;99.90;;;;;;5026196;28;20273;-59
2022/02/16 12:52:04;;;;;;;3.90;2.40;;;10.80;99.90;;;;;;5026554;28;20329;-59
2022/02/16 12:54:34;;;;;;;5.23;2.93;;;10.80;99.90;;;;;;5025985;28;20311;-59
2022/02/16 12:57:05;;;;;;;5.83;2.87;;;10.80;99.90;;;;;;5024670;28;20243;-59
2022/02/16 12:59:36;;;;;;;6.00;2.90;;;10.80;99.90;;;;;;5033361;28;20241;-59
2022/02/16 13:02:18;;;;;;;9.43;3.60;;;10.80;99.90;;;;;;5019964;28;20234;-59
2022/02/16 13:04:51;;;;;;;4.37;3.17;;;10.90;99.90;;;;;;5026219;28;20241;-58
2022/02/16 13:07:20;;;;;;;6.67;2.97;;;11.00;99.90;;;;;;5010316;28;20288;-59